Aviation Digital Data Service (ADDS)

Output produced by METARs form (2215 UTC 21 December 2014)
found at http://www.aviationweather.gov/adds/metars/
 
KSBY 212154Z 00000KT 8SM CLR 04/M03 A3030 RMK AO2 SLP265 T00391033
KSBY 211914Z 2119/2218 34005KT P6SM SKC 
     FM221100 06004KT P6SM BKN100 
     FM221500 06008KT 4SM -RA BR SCT030 OVC050